createdAt,value
2023-03-22T00:04:16.176Z,43.33
2023-03-22T00:09:18.298Z,43.35
2023-03-22T00:14:19.726Z,42.63
2023-03-22T00:19:21.183Z,42.17
2023-03-22T00:24:22.988Z,40.67
2023-03-22T00:29:24.472Z,39.53
2023-03-22T00:34:27.115Z,37.70
2023-03-22T00:39:28.591Z,43.55
2023-03-22T00:44:30.156Z,44.17
2023-03-22T00:49:31.617Z,41.50
2023-03-22T00:54:33.117Z,39.25
2023-03-22T00:59:38.450Z,36.78
2023-03-22T01:04:45.769Z,38.55
2023-03-22T01:09:51.948Z,41.25
2023-03-22T01:14:53.370Z,40.25
2023-03-22T01:19:54.805Z,43.60
2023-03-22T01:24:56.309Z,40.28
2023-03-22T01:29:57.755Z,41.35
2023-03-22T01:34:59.224Z,40.53
2023-03-22T01:40:00.728Z,38.42
2023-03-22T01:45:14.330Z,40.70
2023-03-22T01:50:17.361Z,37.05
2023-03-22T01:55:22.655Z,37.88
2023-03-22T02:00:24.174Z,39.45
2023-03-22T02:05:26.416Z,39.88
2023-03-22T02:10:28.562Z,41.08
2023-03-22T02:15:33.882Z,38.95
2023-03-22T02:20:53.005Z,37.70
2023-03-22T02:31:27.868Z,40.17
2023-03-22T02:36:40.224Z,39.55
2023-03-22T02:41:47.808Z,38.38
2023-03-22T02:47:34.278Z,42.35
2023-03-22T02:52:54.420Z,39.67
2023-03-22T02:57:58.356Z,41.47
2023-03-22T03:03:11.342Z,39.75
2023-03-22T03:08:15.454Z,43.05
2023-03-22T03:13:19.135Z,33.03
2023-03-22T03:18:41.277Z,38.20
2023-03-22T03:23:56.043Z,38.00
2023-03-22T03:29:00.724Z,41.13
2023-03-22T03:34:19.373Z,37.78
2023-03-22T03:39:24.126Z,42.63
2023-03-22T03:44:26.386Z,33.88
2023-03-22T03:49:28.077Z,38.65
2023-03-22T03:54:29.514Z,39.95
2023-03-22T03:59:31.122Z,36.05
2023-03-22T04:04:34.793Z,41.75
2023-03-22T04:09:38.442Z,40.83
2023-03-22T04:14:39.890Z,39.97
2023-03-22T04:19:42.221Z,41.25
2023-03-22T04:24:49.975Z,37.30
2023-03-22T04:29:52.329Z,37.20
2023-03-22T04:34:53.748Z,37.80
2023-03-22T04:39:55.212Z,38.00
2023-03-22T04:44:56.641Z,37.83
2023-03-22T04:49:58.080Z,37.47
2023-03-22T04:54:59.516Z,38.55
2023-03-22T05:00:01.005Z,36.17
2023-03-22T05:05:02.462Z,37.63
2023-03-22T05:10:04.193Z,37.45
2023-03-22T05:15:06.685Z,38.28
2023-03-22T05:20:10.219Z,39.00
2023-03-22T05:25:11.740Z,41.38
2023-03-22T05:30:13.414Z,40.08
2023-03-22T05:35:14.953Z,39.13
2023-03-22T05:40:16.959Z,38.88
2023-03-22T05:45:18.866Z,42.38
2023-03-22T05:50:22.832Z,38.70
2023-03-22T05:55:24.755Z,40.03
2023-03-22T06:00:27.075Z,40.53
2023-03-22T06:05:30.306Z,44.05
2023-03-22T06:10:31.731Z,47.83
2023-03-22T06:15:33.186Z,41.47
2023-03-22T06:20:35.371Z,41.13
2023-03-22T06:25:37.156Z,42.22
2023-03-22T06:30:39.047Z,38.65
2023-03-22T06:35:40.898Z,37.08
2023-03-22T06:40:42.515Z,40.80
2023-03-22T06:45:46.925Z,45.75
2023-03-22T06:50:48.461Z,43.72
2023-03-22T06:55:49.931Z,43.83
2023-03-22T07:00:52.099Z,43.10
2023-03-22T07:05:53.577Z,38.00
2023-03-22T07:10:55.016Z,41.80
2023-03-22T07:15:57.775Z,38.25
2023-03-22T07:20:59.874Z,39.50
2023-03-22T07:26:01.545Z,35.97
2023-03-22T07:31:05.947Z,36.00
2023-03-22T07:36:09.004Z,34.55
2023-03-22T07:41:10.551Z,40.00
2023-03-22T07:46:12.261Z,39.75
2023-03-22T07:51:13.722Z,36.60
2023-03-22T07:56:15.392Z,37.33
2023-03-22T08:01:16.796Z,35.80
2023-03-22T08:06:21.544Z,35.00
2023-03-22T08:11:23.072Z,36.08
2023-03-22T08:16:24.607Z,33.55
2023-03-22T08:21:26.196Z,35.67
2023-03-22T08:26:27.837Z,28.65
2023-03-22T08:31:29.563Z,28.70
2023-03-22T08:36:31.098Z,28.73
2023-03-22T08:41:32.528Z,31.48
2023-03-22T08:46:34.083Z,27.83
2023-03-22T08:51:35.917Z,27.10
2023-03-22T08:56:37.916Z,29.55
2023-03-22T09:01:39.474Z,27.40
2023-03-22T09:06:44.202Z,27.90
2023-03-22T09:11:46.272Z,29.58
2023-03-22T09:16:47.884Z,30.20
2023-03-22T09:21:50.008Z,25.92
2023-03-22T09:26:51.578Z,26.73
2023-03-22T09:31:53.591Z,24.55
2023-03-22T09:36:56.735Z,25.85
2023-03-22T09:42:04.093Z,22.98
2023-03-22T09:47:08.254Z,23.25
2023-03-22T09:52:14.964Z,22.27
2023-03-22T09:57:29.866Z,21.38
2023-03-22T10:02:49.225Z,18.15
2023-03-22T10:07:59.964Z,19.83
2023-03-22T10:13:10.251Z,16.92
2023-03-22T10:18:18.049Z,17.23
2023-03-22T10:23:46.694Z,18.30
2023-03-22T10:28:59.337Z,18.52
2023-03-22T10:34:23.907Z,19.75
2023-03-22T10:39:29.348Z,18.60
2023-03-22T10:44:37.042Z,17.23
2023-03-22T10:49:54.758Z,21.02
2023-03-22T10:55:01.243Z,19.37
2023-03-22T11:00:11.375Z,18.47
2023-03-22T11:05:25.310Z,20.30
2023-03-22T11:10:29.560Z,14.60
2023-03-22T11:15:33.247Z,20.90
2023-03-22T11:20:35.058Z,20.92
2023-03-22T11:25:43.878Z,18.33
2023-03-22T11:36:18.216Z,20.75
2023-03-22T11:41:36.779Z,20.88
2023-03-22T11:46:39.116Z,16.33
2023-03-22T11:51:40.984Z,18.92
2023-03-22T11:56:45.539Z,21.33
2023-03-22T12:01:53.247Z,17.48
2023-03-22T12:06:58.261Z,14.57
2023-03-22T12:12:01.721Z,16.20
2023-03-22T12:17:11.176Z,14.35
2023-03-22T12:22:24.729Z,15.27
2023-03-22T12:27:38.727Z,14.77
2023-03-22T12:32:54.299Z,18.27
2023-03-22T12:37:58.314Z,14.88
2023-03-22T12:43:17.918Z,13.30
2023-03-22T12:48:28.059Z,12.70
2023-03-22T12:53:42.656Z,13.50
2023-03-22T12:58:49.845Z,11.60
2023-03-22T13:03:53.866Z,9.57
2023-03-22T13:09:16.234Z,10.50
2023-03-22T13:14:52.740Z,7.85
2023-03-22T13:20:20.078Z,12.77
2023-03-22T13:25:29.832Z,10.02
2023-03-22T13:30:49.417Z,7.88
2023-03-22T13:35:54.985Z,8.00
2023-03-22T13:41:14.783Z,7.75
2023-03-22T13:46:22.222Z,8.68
2023-03-22T13:51:32.139Z,8.65
